METAR Data
IDs: Format: Raw Decoded Include TAF

Data at: 0232 UTC 25 Jan 2020

KBWI 250154Z 08011KT 10SM BKN014 OVC039 08/05 A3014 RMK AO2 SLP205 T00780050
KBWI 250150Z 08012KT 10SM BKN014 OVC039 08/05 A3013 RMK AO2
KBWI 250054Z 09010KT 10SM FEW013 BKN038 OVC046 08/05 A3016 RMK AO2 SLP212 T00830050
KBWI 250030Z 08012KT 10SM SCT017 OVC040 08/05 A3016 RMK AO2 T00830050
KBWI 250010Z 08010KT 10SM BKN017 OVC041 08/04 A3017 RMK AO2 T00830044
KBWI 242354Z 07012KT 10SM SCT017 OVC041 09/04 A3017 RMK AO2 SLP218 T00890044 10106 20089 55001
KBWI 242254Z 09012KT 10SM SCT041 OVC060 09/04 A3017 RMK AO2 SLP217 T00940044
KBWI 242154Z 09009KT 10SM OVC060 11/04 A3016 RMK AO2 SLP214 T01060044
KBWI 242054Z 07009KT 10SM OVC060 11/04 A3018 RMK AO2 SLP219 T01060044 56022
KBWI 242031Z 07007KT 10SM OVC055 11/04 A3019 RMK AO2 T01060044
KBWI 241954Z 08008KT 10SM BKN021 OVC040 10/04 A3020 RMK AO2 SLP226 T01000039
KBWI 241854Z 08009KT 10SM BKN029 OVC150 10/03 A3020 RMK AO2 SLP228 T01000033
KBWI 241813Z 08010KT 10SM OVC029 09/03 A3023 RMK AO2 T00940028
KBWI 241754Z 08008KT 10SM OVC031 09/02 A3024 RMK AO2 SLP241 T00940022 10094 21006 58025
KBWI 241654Z 09008KT 10SM BKN033 BKN200 08/02 A3028 RMK AO2 SLP254 T00830017
KBWI 241554Z 07009KT 10SM FEW014 SCT150 SCT200 BKN250 08/01 A3030 RMK AO2 SLP261 T00780006
KBWI 241500Z 08008KT 10SM SCT012 BKN150 BKN200 BKN250 06/M01 A3031 RMK AO2 T00561011
KBWI 241457Z 08008KT 10SM SCT012 BKN150 BKN200 BKN250 06/M01 A3032 RMK AO2 T00561011
KBWI 241454Z COR 08010KT 10SM BKN012 BKN150 BKN200 BKN250 06/M01 A3032 RMK AO2 SLP266 BKN012 V SCT T00561011 50001
KBWI 241354Z 06007KT 10SM BKN014 BKN047 OVC150 03/M03 A3032 RMK AO2 SLP269 T00331028
KBWI 241312Z COR 04003KT 10SM BKN014 BKN047 BKN150 BKN190 02/M03 A3033 RMK AO2 T00221033
KBWI 241254Z 04004KT 10SM FEW047 SCT150 BKN190 BKN250 01/M04 A3033 RMK AO2 SLP272 T00111039
KBWI 241154Z 06005KT 10SM SCT047 BKN150 BKN190 02/M04 A3031 RMK AO2 SLP266 T00171039 10017 21022 55001
KBWI 241054Z 00000KT 10SM SCT046 BKN150 00/M04 A3031 RMK AO2 SLP266 T00001044
KBWI 240954Z 00000KT 10SM FEW033 BKN150 M01/M04 A3031 RMK AO2 SLP265 T10061044
KBWI 240854Z 00000KT 10SM SCT011 BKN033 BKN160 M01/M04 A3032 RMK AO2 SLP267 T10061044 58005
KBWI 240823Z 00000KT 10SM SCT015 BKN033 BKN160 M02/M04 A3033 RMK AO2 T10171044
KBWI 240754Z 00000KT 10SM SCT015 BKN028 BKN160 M01/M04 A3033 RMK AO2 SLP271 T10111044
KBWI 240747Z 00000KT 10SM SCT015 BKN028 BKN160 M01/M05 A3033 RMK AO2 T10111050
KBWI 240654Z 00000KT 10SM FEW028 SCT160 SCT220 M01/M05 A3032 RMK AO2 SLP269 T10111050
KBWI 240554Z 28003KT 10SM FEW028 BKN160 BKN220 M01/M05 A3033 RMK AO2 SLP272 T10061050 10028 21017 58005
KBWI 240454Z 00000KT 10SM FEW028 SCT160 BKN220 M01/M06 A3034 RMK AO2 SLP275 T10111056 400501061
KBWI 240354Z 00000KT 10SM FEW030 SCT160 SCT220 01/M06 A3034 RMK AO2 SLP276 T00061056
KBWI 240334Z 00000KT 10SM SCT030 01/M05 A3035 RMK AO2 T00061050
KBWI 240254Z COR 00000KT 10SM SCT030 BKN160 OVC220 01/M05 A3035 RMK AO2 SLP277 T00111050 58003
KBWI 240154Z 00000KT 10SM SCT030 OVC160 01/M05 A3035 RMK AO2 SLP279 T00111050
KBWI 240054Z 11004KT 10SM FEW110 OVC160 02/M05 A3035 RMK AO2 SLP280 T00221050
KBWI 232354Z 00000KT 10SM FEW110 OVC160 02/M06 A3036 RMK AO2 SLP281 T00221061 10050 20017 53005
KBWI 232254Z 11003KT 10SM FEW110 BKN160 OVC220 03/M07 A3035 RMK AO2 SLP277 T00281067
KBWI 232154Z 07006KT 10SM FEW075 FEW110 BKN160 BKN220 04/M07 A3033 RMK AO2 SLP273 T00391067
KBWI 232054Z 09004KT 10SM FEW075 SCT110 OVC160 05/M05 A3034 RMK AO2 SLP276 T00501050 55007
KBWI 231954Z 00000KT 10SM FEW110 OVC160 05/M06 A3034 RMK AO2 SLP275 T00501056
KBWI 231854Z VRB05KT 10SM FEW110 OVC160 04/M05 A3034 RMK AO2 SLP275 T00441050
KBWI 231754Z 11004KT 10SM BKN160 OVC200 04/M05 A3036 RMK AO2 SLP283 T00441050 10044 21056 58021
KBWI 231654Z 00000KT 10SM FEW160 OVC250 04/M06 A3040 RMK AO2 SLP295 T00441061
KBWI 231554Z 00000KT 10SM SCT160 OVC250 02/M05 A3043 RMK AO2 SLP305 T00221050
KBWI 231454Z 12004KT 10SM SCT160 OVC250 01/M04 A3042 RMK AO2 SLP304 T00061039 50006